sensor_id;sensor_type;location;lat;lon;timestamp;pressure;altitude;pressure_sealevel;temperature
47484;BMP280;54076;50.322;18.650;2023-01-25T00:01:29;100958.06;;;4.48
47484;BMP280;54076;50.322;18.650;2023-01-25T00:06:30;100953.06;;;4.50
47484;BMP280;54076;50.322;18.650;2023-01-25T00:11:31;100955.32;;;4.45
47484;BMP280;54076;50.322;18.650;2023-01-25T00:16:32;100951.73;;;4.41
47484;BMP280;54076;50.322;18.650;2023-01-25T00:21:34;100948.42;;;4.40
47484;BMP280;54076;50.322;18.650;2023-01-25T00:26:36;100948.31;;;4.47
47484;BMP280;54076;50.322;18.650;2023-01-25T00:31:49;100943.61;;;4.42
47484;BMP280;54076;50.322;18.650;2023-01-25T00:42:03;100948.69;;;4.20
47484;BMP280;54076;50.322;18.650;2023-01-25T00:47:05;100949.00;;;4.25
47484;BMP280;54076;50.322;18.650;2023-01-25T00:52:07;100948.02;;;4.29
47484;BMP280;54076;50.322;18.650;2023-01-25T00:57:08;100947.89;;;4.21
47484;BMP280;54076;50.322;18.650;2023-01-25T01:02:11;100945.17;;;4.37
47484;BMP280;54076;50.322;18.650;2023-01-25T01:07:14;100945.13;;;4.42
47484;BMP280;54076;50.322;18.650;2023-01-25T01:12:15;100937.77;;;4.40
47484;BMP280;54076;50.322;18.650;2023-01-25T01:17:16;100928.63;;;4.26
47484;BMP280;54076;50.322;18.650;2023-01-25T01:22:17;100921.67;;;4.32
47484;BMP280;54076;50.322;18.650;2023-01-25T01:27:18;100912.16;;;4.36
47484;BMP280;54076;50.322;18.650;2023-01-25T01:32:19;100904.85;;;4.36
47484;BMP280;54076;50.322;18.650;2023-01-25T01:37:20;100904.89;;;4.29
47484;BMP280;54076;50.322;18.650;2023-01-25T01:42:22;100906.11;;;4.30
47484;BMP280;54076;50.322;18.650;2023-01-25T02:00:16;100877.77;;;4.25
47484;BMP280;54076;50.322;18.650;2023-01-25T02:05:26;100869.17;;;4.36
47484;BMP280;54076;50.322;18.650;2023-01-25T02:10:31;100860.59;;;4.36
47484;BMP280;54076;50.322;18.650;2023-01-25T02:15:55;100853.91;;;4.22
47484;BMP280;54076;50.322;18.650;2023-01-25T02:20:59;100851.84;;;4.23
47484;BMP280;54076;50.322;18.650;2023-01-25T02:26:04;100854.61;;;4.24
47484;BMP280;54076;50.322;18.650;2023-01-25T02:31:06;100850.80;;;4.25
47484;BMP280;54076;50.322;18.650;2023-01-25T02:41:36;100851.73;;;4.23
47484;BMP280;54076;50.322;18.650;2023-01-25T02:46:40;100846.90;;;4.22
47484;BMP280;54076;50.322;18.650;2023-01-25T02:51:48;100850.95;;;4.21
47484;BMP280;54076;50.322;18.650;2023-01-25T02:56:49;100854.58;;;4.24
47484;BMP280;54076;50.322;18.650;2023-01-25T03:01:50;100849.25;;;4.18
47484;BMP280;54076;50.322;18.650;2023-01-25T03:06:52;100847.14;;;4.08
47484;BMP280;54076;50.322;18.650;2023-01-25T03:11:53;100843.88;;;4.19
47484;BMP280;54076;50.322;18.650;2023-01-25T03:16:54;100846.30;;;4.17
47484;BMP280;54076;50.322;18.650;2023-01-25T03:21:55;100842.88;;;4.15
47484;BMP280;54076;50.322;18.650;2023-01-25T03:26:58;100836.24;;;4.07
47484;BMP280;54076;50.322;18.650;2023-01-25T03:32:13;100833.42;;;4.11
47484;BMP280;54076;50.322;18.650;2023-01-25T03:37:15;100837.45;;;4.05
47484;BMP280;54076;50.322;18.650;2023-01-25T03:42:19;100842.02;;;3.99
47484;BMP280;54076;50.322;18.650;2023-01-25T03:47:20;100838.66;;;4.00
47484;BMP280;54076;50.322;18.650;2023-01-25T03:52:21;100838.53;;;3.99
47484;BMP280;54076;50.322;18.650;2023-01-25T03:57:24;100835.78;;;4.03
47484;BMP280;54076;50.322;18.650;2023-01-25T04:02:25;100837.91;;;3.90
47484;BMP280;54076;50.322;18.650;2023-01-25T04:07:26;100829.91;;;3.84
47484;BMP280;54076;50.322;18.650;2023-01-25T04:12:28;100819.35;;;3.90
47484;BMP280;54076;50.322;18.650;2023-01-25T04:17:29;100813.52;;;3.90
47484;BMP280;54076;50.322;18.650;2023-01-25T04:22:30;100812.99;;;3.82
47484;BMP280;54076;50.322;18.650;2023-01-25T04:27:31;100811.20;;;3.83
47484;BMP280;54076;50.322;18.650;2023-01-25T04:32:35;100807.58;;;3.77
47484;BMP280;54076;50.322;18.650;2023-01-25T04:37:36;100805.11;;;3.77
47484;BMP280;54076;50.322;18.650;2023-01-25T04:42:37;100798.12;;;3.81
47484;BMP280;54076;50.322;18.650;2023-01-25T04:47:39;100794.21;;;3.70
47484;BMP280;54076;50.322;18.650;2023-01-25T04:52:40;100792.23;;;3.76
47484;BMP280;54076;50.322;18.650;2023-01-25T04:57:41;100788.32;;;3.72
47484;BMP280;54076;50.322;18.650;2023-01-25T05:02:42;100784.69;;;3.73
47484;BMP280;54076;50.322;18.650;2023-01-25T05:07:43;100785.09;;;3.66
47484;BMP280;54076;50.322;18.650;2023-01-25T05:12:45;100783.71;;;3.79
47484;BMP280;54076;50.322;18.650;2023-01-25T05:17:46;100780.27;;;3.70
47484;BMP280;54076;50.322;18.650;2023-01-25T05:22:47;100775.45;;;3.81
47484;BMP280;54076;50.322;18.650;2023-01-25T05:27:48;100764.75;;;3.64
47484;BMP280;54076;50.322;18.650;2023-01-25T05:32:49;100764.95;;;3.64
47484;BMP280;54076;50.322;18.650;2023-01-25T05:37:55;100763.05;;;3.67
47484;BMP280;54076;50.322;18.650;2023-01-25T05:42:58;100762.09;;;3.67
47484;BMP280;54076;50.322;18.650;2023-01-25T05:47:59;100768.39;;;3.74
47484;BMP280;54076;50.322;18.650;2023-01-25T05:53:00;100770.58;;;3.73
47484;BMP280;54076;50.322;18.650;2023-01-25T05:58:02;100768.71;;;3.76
47484;BMP280;54076;50.322;18.650;2023-01-25T06:03:03;100760.38;;;3.76
47484;BMP280;54076;50.322;18.650;2023-01-25T06:08:05;100754.50;;;3.72
47484;BMP280;54076;50.322;18.650;2023-01-25T06:13:06;100754.03;;;3.62
47484;BMP280;54076;50.322;18.650;2023-01-25T06:18:07;100749.50;;;3.74
47484;BMP280;54076;50.322;18.650;2023-01-25T06:23:08;100752.48;;;3.64
47484;BMP280;54076;50.322;18.650;2023-01-25T06:28:09;100756.67;;;3.83
47484;BMP280;54076;50.322;18.650;2023-01-25T06:33:11;100757.90;;;3.78
47484;BMP280;54076;50.322;18.650;2023-01-25T06:38:12;100756.31;;;3.81
47484;BMP280;54076;50.322;18.650;2023-01-25T06:43:13;100756.09;;;3.75
47484;BMP280;54076;50.322;18.650;2023-01-25T06:48:14;100754.23;;;3.80
47484;BMP280;54076;50.322;18.650;2023-01-25T06:53:15;100753.55;;;3.92
47484;BMP280;54076;50.322;18.650;2023-01-25T06:58:16;100745.02;;;4.06
47484;BMP280;54076;50.322;18.650;2023-01-25T07:03:17;100738.25;;;3.60
47484;BMP280;54076;50.322;18.650;2023-01-25T07:08:22;100738.99;;;3.92
47484;BMP280;54076;50.322;18.650;2023-01-25T07:13:25;100726.77;;;3.94
47484;BMP280;54076;50.322;18.650;2023-01-25T07:18:28;100728.97;;;3.86
47484;BMP280;54076;50.322;18.650;2023-01-25T07:23:31;100724.91;;;3.82
47484;BMP280;54076;50.322;18.650;2023-01-25T07:28:33;100722.48;;;3.89
47484;BMP280;54076;50.322;18.650;2023-01-25T07:33:34;100715.98;;;3.66
47484;BMP280;54076;50.322;18.650;2023-01-25T07:38:36;100710.48;;;3.87
47484;BMP280;54076;50.322;18.650;2023-01-25T07:43:38;100712.86;;;3.85
47484;BMP280;54076;50.322;18.650;2023-01-25T07:48:45;100711.66;;;3.88
47484;BMP280;54076;50.322;18.650;2023-01-25T07:53:52;100710.16;;;3.92
47484;BMP280;54076;50.322;18.650;2023-01-25T07:58:56;100710.20;;;3.89
47484;BMP280;54076;50.322;18.650;2023-01-25T08:03:58;100705.05;;;3.88
47484;BMP280;54076;50.322;18.650;2023-01-25T08:09:11;100706.52;;;3.78
47484;BMP280;54076;50.322;18.650;2023-01-25T08:14:13;100704.85;;;4.03
47484;BMP280;54076;50.322;18.650;2023-01-25T08:19:15;100696.17;;;3.96
47484;BMP280;54076;50.322;18.650;2023-01-25T08:24:16;100697.08;;;3.87
47484;BMP280;54076;50.322;18.650;2023-01-25T08:29:18;100693.05;;;3.89
47484;BMP280;54076;50.322;18.650;2023-01-25T08:34:19;100688.59;;;3.75
47484;BMP280;54076;50.322;18.650;2023-01-25T08:39:20;100678.54;;;3.85
47484;BMP280;54076;50.322;18.650;2023-01-25T08:44:21;100670.93;;;3.91
47484;BMP280;54076;50.322;18.650;2023-01-25T08:49:24;100669.98;;;3.99
47484;BMP280;54076;50.322;18.650;2023-01-25T08:54:26;100668.00;;;4.11
47484;BMP280;54076;50.322;18.650;2023-01-25T08:59:28;100666.96;;;4.03
47484;BMP280;54076;50.322;18.650;2023-01-25T09:04:29;100667.53;;;4.02
47484;BMP280;54076;50.322;18.650;2023-01-25T09:09:31;100658.21;;;4.06
47484;BMP280;54076;50.322;18.650;2023-01-25T09:14:32;100656.79;;;4.00
47484;BMP280;54076;50.322;18.650;2023-01-25T09:19:33;100656.70;;;3.97
47484;BMP280;54076;50.322;18.650;2023-01-25T09:24:35;100653.96;;;3.88
47484;BMP280;54076;50.322;18.650;2023-01-25T09:29:36;100646.07;;;3.91
47484;BMP280;54076;50.322;18.650;2023-01-25T09:34:37;100640.33;;;4.10
47484;BMP280;54076;50.322;18.650;2023-01-25T09:39:38;100629.69;;;4.05
47484;BMP280;54076;50.322;18.650;2023-01-25T09:55:57;100615.42;;;4.16
47484;BMP280;54076;50.322;18.650;2023-01-25T10:06:13;100594.42;;;4.20
47484;BMP280;54076;50.322;18.650;2023-01-25T10:11:22;100590.85;;;4.24
47484;BMP280;54076;50.322;18.650;2023-01-25T10:22:20;100574.36;;;4.10
47484;BMP280;54076;50.322;18.650;2023-01-25T10:28:00;100572.64;;;4.17
47484;BMP280;54076;50.322;18.650;2023-01-25T10:33:15;100570.36;;;4.16
47484;BMP280;54076;50.322;18.650;2023-01-25T10:43:29;100551.89;;;4.38
47484;BMP280;54076;50.322;18.650;2023-01-25T10:48:35;100537.80;;;4.34
47484;BMP280;54076;50.322;18.650;2023-01-25T10:53:38;100551.01;;;4.36
47484;BMP280;54076;50.322;18.650;2023-01-25T10:58:47;100535.83;;;4.67
47484;BMP280;54076;50.322;18.650;2023-01-25T11:03:49;100519.00;;;4.53
47484;BMP280;54076;50.322;18.650;2023-01-25T11:08:50;100517.38;;;4.48
47484;BMP280;54076;50.322;18.650;2023-01-25T11:13:53;100508.41;;;4.64
47484;BMP280;54076;50.322;18.650;2023-01-25T11:18:59;100503.17;;;4.66
47484;BMP280;54076;50.322;18.650;2023-01-25T11:29:20;100480.21;;;4.43
47484;BMP280;54076;50.322;18.650;2023-01-25T11:34:26;100483.95;;;4.35
47484;BMP280;54076;50.322;18.650;2023-01-25T12:12:09;100404.05;;;4.65
47484;BMP280;54076;50.322;18.650;2023-01-25T12:28:42;100394.77;;;3.98
47484;BMP280;54076;50.322;18.650;2023-01-25T12:34:03;100393.29;;;4.02
47484;BMP280;54076;50.322;18.650;2023-01-25T12:39:30;100385.70;;;4.08
47484;BMP280;54076;50.322;18.650;2023-01-25T12:44:41;100373.85;;;4.10
47484;BMP280;54076;50.322;18.650;2023-01-25T12:49:59;100359.08;;;4.47
47484;BMP280;54076;50.322;18.650;2023-01-25T12:55:12;100362.53;;;4.20
47484;BMP280;54076;50.322;18.650;2023-01-25T13:10:48;100340.84;;;4.52
47484;BMP280;54076;50.322;18.650;2023-01-25T13:15:51;100335.02;;;4.75
47484;BMP280;54076;50.322;18.650;2023-01-25T13:21:01;100327.72;;;4.29
47484;BMP280;54076;50.322;18.650;2023-01-25T13:41:58;100307.34;;;4.83
47484;BMP280;54076;50.322;18.650;2023-01-25T13:47:03;100298.77;;;4.20
47484;BMP280;54076;50.322;18.650;2023-01-25T13:52:05;100297.02;;;4.64
47484;BMP280;54076;50.322;18.650;2023-01-25T13:57:23;100286.09;;;4.80
47484;BMP280;54076;50.322;18.650;2023-01-25T14:02:26;100279.69;;;4.73
47484;BMP280;54076;50.322;18.650;2023-01-25T14:07:31;100271.22;;;4.65
47484;BMP280;54076;50.322;18.650;2023-01-25T14:12:41;100271.36;;;4.61
47484;BMP280;54076;50.322;18.650;2023-01-25T14:17:43;100267.16;;;4.57
47484;BMP280;54076;50.322;18.650;2023-01-25T14:22:49;100270.34;;;4.43
47484;BMP280;54076;50.322;18.650;2023-01-25T14:27:57;100260.15;;;4.57
47484;BMP280;54076;50.322;18.650;2023-01-25T14:33:02;100262.84;;;4.36
47484;BMP280;54076;50.322;18.650;2023-01-25T14:43:25;100242.73;;;4.14
47484;BMP280;54076;50.322;18.650;2023-01-25T14:48:36;100242.65;;;4.26
47484;BMP280;54076;50.322;18.650;2023-01-25T14:53:40;100236.16;;;4.50
47484;BMP280;54076;50.322;18.650;2023-01-25T14:58:43;100224.94;;;4.43
47484;BMP280;54076;50.322;18.650;2023-01-25T15:03:44;100219.23;;;4.48
47484;BMP280;54076;50.322;18.650;2023-01-25T15:08:45;100217.77;;;4.38
47484;BMP280;54076;50.322;18.650;2023-01-25T15:13:46;100220.72;;;4.18
47484;BMP280;54076;50.322;18.650;2023-01-25T15:18:54;100204.92;;;4.18
47484;BMP280;54076;50.322;18.650;2023-01-25T15:24:00;100196.34;;;4.21
47484;BMP280;54076;50.322;18.650;2023-01-25T15:29:17;100193.30;;;4.27
47484;BMP280;54076;50.322;18.650;2023-01-25T15:34:27;100196.04;;;4.24
47484;BMP280;54076;50.322;18.650;2023-01-25T15:39:32;100195.73;;;3.79
47484;BMP280;54076;50.322;18.650;2023-01-25T15:44:35;100187.56;;;4.08
47484;BMP280;54076;50.322;18.650;2023-01-25T15:49:36;100179.79;;;3.53
47484;BMP280;54076;50.322;18.650;2023-01-25T15:54:39;100179.48;;;3.55
47484;BMP280;54076;50.322;18.650;2023-01-25T15:59:41;100183.76;;;3.70
47484;BMP280;54076;50.322;18.650;2023-01-25T16:04:42;100184.45;;;3.86
47484;BMP280;54076;50.322;18.650;2023-01-25T16:09:43;100180.83;;;3.69
47484;BMP280;54076;50.322;18.650;2023-01-25T16:14:44;100175.98;;;3.68
47484;BMP280;54076;50.322;18.650;2023-01-25T16:19:46;100164.67;;;3.57
47484;BMP280;54076;50.322;18.650;2023-01-25T16:24:47;100148.89;;;3.51
47484;BMP280;54076;50.322;18.650;2023-01-25T16:29:48;100149.61;;;3.71
47484;BMP280;54076;50.322;18.650;2023-01-25T16:34:50;100135.49;;;3.53
47484;BMP280;54076;50.322;18.650;2023-01-25T16:39:51;100133.66;;;3.78
47484;BMP280;54076;50.322;18.650;2023-01-25T16:44:53;100128.17;;;3.70
47484;BMP280;54076;50.322;18.650;2023-01-25T16:49:54;100131.56;;;3.46
47484;BMP280;54076;50.322;18.650;2023-01-25T16:54:55;100123.80;;;3.59
47484;BMP280;54076;50.322;18.650;2023-01-25T16:59:56;100116.10;;;3.56
47484;BMP280;54076;50.322;18.650;2023-01-25T17:04:58;100117.27;;;3.44
47484;BMP280;54076;50.322;18.650;2023-01-25T17:09:59;100111.56;;;3.60
47484;BMP280;54076;50.322;18.650;2023-01-25T17:15:00;100100.36;;;3.66
47484;BMP280;54076;50.322;18.650;2023-01-25T17:20:02;100098.06;;;3.96
47484;BMP280;54076;50.322;18.650;2023-01-25T17:25:05;100096.55;;;4.00
47484;BMP280;54076;50.322;18.650;2023-01-25T17:30:07;100084.74;;;4.00
47484;BMP280;54076;50.322;18.650;2023-01-25T17:35:09;100079.16;;;4.17
47484;BMP280;54076;50.322;18.650;2023-01-25T17:40:10;100061.46;;;4.27
47484;BMP280;54076;50.322;18.650;2023-01-25T17:45:12;100066.23;;;4.23
47484;BMP280;54076;50.322;18.650;2023-01-25T17:50:13;100061.20;;;4.34
47484;BMP280;54076;50.322;18.650;2023-01-25T17:55:14;100046.45;;;4.28
47484;BMP280;54076;50.322;18.650;2023-01-25T18:00:16;100041.36;;;4.26
47484;BMP280;54076;50.322;18.650;2023-01-25T18:05:18;100038.15;;;4.17
47484;BMP280;54076;50.322;18.650;2023-01-25T18:10:19;100029.05;;;3.92
47484;BMP280;54076;50.322;18.650;2023-01-25T18:15:20;100025.55;;;4.14
47484;BMP280;54076;50.322;18.650;2023-01-25T18:20:22;100016.51;;;4.07
47484;BMP280;54076;50.322;18.650;2023-01-25T18:25:33;100020.39;;;4.06
47484;BMP280;54076;50.322;18.650;2023-01-25T18:30:42;100015.38;;;4.31
47484;BMP280;54076;50.322;18.650;2023-01-25T18:35:46;100002.79;;;4.18
47484;BMP280;54076;50.322;18.650;2023-01-25T18:40:48;100001.56;;;4.22
47484;BMP280;54076;50.322;18.650;2023-01-25T18:45:57;99995.53;;;4.21
47484;BMP280;54076;50.322;18.650;2023-01-25T18:51:11;99994.23;;;4.09
47484;BMP280;54076;50.322;18.650;2023-01-25T18:56:16;99999.16;;;4.00
47484;BMP280;54076;50.322;18.650;2023-01-25T19:01:20;99985.98;;;4.05
47484;BMP280;54076;50.322;18.650;2023-01-25T19:06:23;99976.73;;;3.91
47484;BMP280;54076;50.322;18.650;2023-01-25T19:11:25;99968.67;;;4.01
47484;BMP280;54076;50.322;18.650;2023-01-25T19:16:26;99962.44;;;4.04
47484;BMP280;54076;50.322;18.650;2023-01-25T19:21:27;99965.23;;;3.95
47484;BMP280;54076;50.322;18.650;2023-01-25T19:26:29;99960.38;;;3.97
47484;BMP280;54076;50.322;18.650;2023-01-25T19:31:30;99950.60;;;3.89
47484;BMP280;54076;50.322;18.650;2023-01-25T19:36:35;99942.56;;;3.87
47484;BMP280;54076;50.322;18.650;2023-01-25T19:41:37;99939.42;;;3.84
47484;BMP280;54076;50.322;18.650;2023-01-25T19:46:39;99933.70;;;3.78
47484;BMP280;54076;50.322;18.650;2023-01-25T19:51:42;99938.82;;;3.65
47484;BMP280;54076;50.322;18.650;2023-01-25T19:56:47;99938.84;;;3.64
47484;BMP280;54076;50.322;18.650;2023-01-25T20:01:49;99932.42;;;3.55
47484;BMP280;54076;50.322;18.650;2023-01-25T20:06:51;99930.90;;;3.62
47484;BMP280;54076;50.322;18.650;2023-01-25T20:11:56;99927.51;;;3.64
47484;BMP280;54076;50.322;18.650;2023-01-25T20:16:57;99917.75;;;3.38
47484;BMP280;54076;50.322;18.650;2023-01-25T20:21:58;99915.45;;;3.36
47484;BMP280;54076;50.322;18.650;2023-01-25T20:27:00;99920.27;;;3.41
47484;BMP280;54076;50.322;18.650;2023-01-25T20:32:01;99914.02;;;3.26
47484;BMP280;54076;50.322;18.650;2023-01-25T20:37:03;99918.48;;;3.34
47484;BMP280;54076;50.322;18.650;2023-01-25T20:42:04;99918.66;;;3.21
47484;BMP280;54076;50.322;18.650;2023-01-25T20:47:06;99914.45;;;3.23
47484;BMP280;54076;50.322;18.650;2023-01-25T20:52:07;99908.95;;;3.13
47484;BMP280;54076;50.322;18.650;2023-01-25T20:57:12;99900.86;;;3.17
47484;BMP280;54076;50.322;18.650;2023-01-25T21:02:13;99900.46;;;3.16
47484;BMP280;54076;50.322;18.650;2023-01-25T21:07:14;99885.76;;;3.11
47484;BMP280;54076;50.322;18.650;2023-01-25T21:12:16;99880.16;;;2.99
47484;BMP280;54076;50.322;18.650;2023-01-25T21:17:17;99878.85;;;3.05
47484;BMP280;54076;50.322;18.650;2023-01-25T21:22:18;99874.05;;;3.03
47484;BMP280;54076;50.322;18.650;2023-01-25T21:27:19;99869.55;;;2.91
47484;BMP280;54076;50.322;18.650;2023-01-25T21:32:20;99869.55;;;2.93
47484;BMP280;54076;50.322;18.650;2023-01-25T21:37:23;99871.82;;;2.99
47484;BMP280;54076;50.322;18.650;2023-01-25T21:42:24;99867.23;;;2.93
47484;BMP280;54076;50.322;18.650;2023-01-25T21:47:28;99861.52;;;3.04
47484;BMP280;54076;50.322;18.650;2023-01-25T21:52:32;99859.55;;;2.85
47484;BMP280;54076;50.322;18.650;2023-01-25T21:57:34;99860.92;;;2.78
47484;BMP280;54076;50.322;18.650;2023-01-25T22:02:35;99862.38;;;2.79
47484;BMP280;54076;50.322;18.650;2023-01-25T22:07:36;99865.36;;;2.81
47484;BMP280;54076;50.322;18.650;2023-01-25T22:12:38;99863.70;;;2.81
47484;BMP280;54076;50.322;18.650;2023-01-25T22:17:39;99853.30;;;2.86
47484;BMP280;54076;50.322;18.650;2023-01-25T22:22:40;99850.60;;;2.69
47484;BMP280;54076;50.322;18.650;2023-01-25T22:27:51;99851.61;;;2.55
47484;BMP280;54076;50.322;18.650;2023-01-25T22:32:55;99848.99;;;2.60
47484;BMP280;54076;50.322;18.650;2023-01-25T22:37:56;99843.36;;;2.56
47484;BMP280;54076;50.322;18.650;2023-01-25T22:42:57;99841.86;;;2.70
47484;BMP280;54076;50.322;18.650;2023-01-25T22:47:58;99832.82;;;2.80
47484;BMP280;54076;50.322;18.650;2023-01-25T22:52:59;99828.42;;;2.74
47484;BMP280;54076;50.322;18.650;2023-01-25T22:58:00;99823.78;;;2.61
47484;BMP280;54076;50.322;18.650;2023-01-25T23:03:02;99810.40;;;2.72
47484;BMP280;54076;50.322;18.650;2023-01-25T23:08:04;99797.98;;;2.78
47484;BMP280;54076;50.322;18.650;2023-01-25T23:13:05;99797.69;;;2.44
47484;BMP280;54076;50.322;18.650;2023-01-25T23:18:08;99789.56;;;2.68
47484;BMP280;54076;50.322;18.650;2023-01-25T23:23:28;99782.69;;;2.70
47484;BMP280;54076;50.322;18.650;2023-01-25T23:28:30;99777.31;;;2.74
47484;BMP280;54076;50.322;18.650;2023-01-25T23:33:32;99774.59;;;2.72
47484;BMP280;54076;50.322;18.650;2023-01-25T23:38:33;99765.52;;;2.61
47484;BMP280;54076;50.322;18.650;2023-01-25T23:43:34;99755.87;;;2.56
47484;BMP280;54076;50.322;18.650;2023-01-25T23:48:36;99748.67;;;2.60
47484;BMP280;54076;50.322;18.650;2023-01-25T23:53:38;99737.61;;;2.58
47484;BMP280;54076;50.322;18.650;2023-01-25T23:58:40;99732.94;;;2.70
